Pagrindinis puslapis
METAR-TAF:

METAR-TAF

Oro uostai :

Viktorija, Mahė, Seišeliai

platuma: 04-40S, ilguma: 055-31E, Aukštis: 3 m

Dabartinis oras

Ataskaita buvo paskelbta 1 valandą ir 2 minutes, ne 01:00 UTC
Vėjas 4 kt iš Pietų
Temperatūra 27°C
Drėgmė 84%
Slėgis 1010 hPa
Matomumas 10 km arba daugiau
Mažai debesys ne aukštis 2200 ft

METAR: FSIA 220100Z 17004KT 9999 FEW022 27/24 Q1010 NOSIG

Laikas: 06:02 (02:02 UTC)

Prognozė

Ataskaita buvo paskelbta 3 valandos ir 1 minutes, ne 23:01 UTC
Prognozė galioja nuo 22 metu 00 UTC su 22 metu 24 UTC
Vėjas 3 kt iš Pietų/Pietvakarių
Matomumas 10 km arba daugiau
Mažai debesys ne aukštis 2200 ft
Laikinai
nuo 22 metu 06 UTC su 22 metu 12 UTC
Matomumas: 8000 m
Mažai debesys ne aukštis 1800 ft, Liūtiniai kamuoliniai debesys.
Su prošvaistėmis ne aukštis 2000 ft
lietus

TAF: FSIA 212301Z 2200/2224 20003KT 9999 FEW022 TEMPO 2206/2212 8000 SHRA FEW018CB BKN020

Orai ataskaitas ir orų prognozės (METAR, TAF).

turimą stotys yra geltonos ir raudonos taškus žemėlapyje.

Perkelti pele per norėdami pamatyti stoties vardą.

Tada spustelėkite, norėdami matyti oro stebėjimo ir prognozės.

Norėdami pakeisti žemėlapį: spustelėkite ant žalios mygtukų su juodo kryžiaus žemyn,; žalią mygtuką su brūkšneliu, jei norite nutolinti; arba žalių rodyklių gretimoms žemėlapius.


METAR-TAF: